sensor_id;sensor_type;location;lat;lon;timestamp;temperature;humidity
70214;DHT22;60138;55.808;37.078;2024-03-06T00:00:36;-4.23;61.83
70214;DHT22;60138;55.808;37.078;2024-03-06T00:03:04;-4.27;61.76
70214;DHT22;60138;55.808;37.078;2024-03-06T00:05:30;-4.32;61.92
70214;DHT22;60138;55.808;37.078;2024-03-06T00:07:56;-4.36;61.94
70214;DHT22;60138;55.808;37.078;2024-03-06T00:10:21;-4.36;62.16
70214;DHT22;60138;55.808;37.078;2024-03-06T00:12:47;-4.39;62.09
70214;DHT22;60138;55.808;37.078;2024-03-06T00:15:13;-4.43;62.11
70214;DHT22;60138;55.808;37.078;2024-03-06T00:17:38;-4.46;62.18
70214;DHT22;60138;55.808;37.078;2024-03-06T00:20:04;-4.49;62.21
70214;DHT22;60138;55.808;37.078;2024-03-06T00:22:30;-4.54;62.25
70214;DHT22;60138;55.808;37.078;2024-03-06T00:24:56;-4.56;62.32
70214;DHT22;60138;55.808;37.078;2024-03-06T00:27:22;-4.61;62.21
70214;DHT22;60138;55.808;37.078;2024-03-06T00:29:47;-4.65;62.32
70214;DHT22;60138;55.808;37.078;2024-03-06T00:32:14;-4.69;62.37
70214;DHT22;60138;55.808;37.078;2024-03-06T00:34:40;-4.71;62.44
70214;DHT22;60138;55.808;37.078;2024-03-06T00:37:05;-4.72;62.42
70214;DHT22;60138;55.808;37.078;2024-03-06T00:39:31;-4.78;62.31
70214;DHT22;60138;55.808;37.078;2024-03-06T00:41:57;-4.81;62.34
70214;DHT22;60138;55.808;37.078;2024-03-06T00:44:22;-4.86;62.35
70214;DHT22;60138;55.808;37.078;2024-03-06T00:46:48;-4.89;62.44
70214;DHT22;60138;55.808;37.078;2024-03-06T00:49:14;-4.90;62.52
70214;DHT22;60138;55.808;37.078;2024-03-06T00:51:39;-4.93;62.56
70214;DHT22;60138;55.808;37.078;2024-03-06T00:54:05;-4.95;62.59
70214;DHT22;60138;55.808;37.078;2024-03-06T00:56:31;-4.99;62.66
70214;DHT22;60138;55.808;37.078;2024-03-06T00:58:56;-5.01;62.73
70214;DHT22;60138;55.808;37.078;2024-03-06T01:01:22;-5.03;62.79
70214;DHT22;60138;55.808;37.078;2024-03-06T01:03:49;-5.05;62.74
70214;DHT22;60138;55.808;37.078;2024-03-06T01:06:15;-5.08;62.74
70214;DHT22;60138;55.808;37.078;2024-03-06T01:08:41;-5.10;62.77
70214;DHT22;60138;55.808;37.078;2024-03-06T01:11:07;-5.12;62.84
70214;DHT22;60138;55.808;37.078;2024-03-06T01:13:32;-5.12;62.89
70214;DHT22;60138;55.808;37.078;2024-03-06T01:15:58;-5.15;62.85
70214;DHT22;60138;55.808;37.078;2024-03-06T01:18:24;-5.17;62.93
70214;DHT22;60138;55.808;37.078;2024-03-06T01:20:49;-5.22;62.96
70214;DHT22;60138;55.808;37.078;2024-03-06T01:23:15;-5.25;63.05
70214;DHT22;60138;55.808;37.078;2024-03-06T01:25:41;-5.29;63.05
70214;DHT22;60138;55.808;37.078;2024-03-06T01:28:06;-5.33;62.97
70214;DHT22;60138;55.808;37.078;2024-03-06T01:30:32;-5.39;62.98
70214;DHT22;60138;55.808;37.078;2024-03-06T01:32:58;-5.43;63.06
70214;DHT22;60138;55.808;37.078;2024-03-06T01:35:24;-5.48;63.08
70214;DHT22;60138;55.808;37.078;2024-03-06T01:37:49;-5.57;62.95
70214;DHT22;60138;55.808;37.078;2024-03-06T01:40:15;-5.62;63.05
70214;DHT22;60138;55.808;37.078;2024-03-06T01:42:41;-5.69;63.10
70214;DHT22;60138;55.808;37.078;2024-03-06T01:45:07;-5.70;63.23
70214;DHT22;60138;55.808;37.078;2024-03-06T01:47:33;-5.73;63.35
70214;DHT22;60138;55.808;37.078;2024-03-06T01:49:59;-5.74;63.28
70214;DHT22;60138;55.808;37.078;2024-03-06T01:52:26;-5.74;63.28
70214;DHT22;60138;55.808;37.078;2024-03-06T01:54:51;-5.74;63.31
70214;DHT22;60138;55.808;37.078;2024-03-06T01:57:18;-5.77;63.28
70214;DHT22;60138;55.808;37.078;2024-03-06T01:59:44;-5.83;63.34
70214;DHT22;60138;55.808;37.078;2024-03-06T02:02:10;-5.84;63.28
70214;DHT22;60138;55.808;37.078;2024-03-06T02:04:36;-5.87;63.25
70214;DHT22;60138;55.808;37.078;2024-03-06T02:07:02;-5.89;63.31
70214;DHT22;60138;55.808;37.078;2024-03-06T02:09:28;-5.90;63.29
70214;DHT22;60138;55.808;37.078;2024-03-06T02:11:54;-5.91;63.34
70214;DHT22;60138;55.808;37.078;2024-03-06T02:14:20;-5.91;63.35
70214;DHT22;60138;55.808;37.078;2024-03-06T02:16:45;-5.94;63.35
70214;DHT22;60138;55.808;37.078;2024-03-06T02:19:41;-5.97;63.30
70214;DHT22;60138;55.808;37.078;2024-03-06T02:22:08;-6.02;63.29
70214;DHT22;60138;55.808;37.078;2024-03-06T02:24:34;-6.05;63.33
70214;DHT22;60138;55.808;37.078;2024-03-06T02:27:01;-6.08;63.40
70214;DHT22;60138;55.808;37.078;2024-03-06T02:29:27;-6.08;63.41
70214;DHT22;60138;55.808;37.078;2024-03-06T02:31:52;-6.09;63.44
70214;DHT22;60138;55.808;37.078;2024-03-06T02:34:18;-6.11;63.47
70214;DHT22;60138;55.808;37.078;2024-03-06T02:36:44;-6.13;63.54
70214;DHT22;60138;55.808;37.078;2024-03-06T02:39:10;-6.13;63.58
70214;DHT22;60138;55.808;37.078;2024-03-06T02:41:36;-6.17;63.52
70214;DHT22;60138;55.808;37.078;2024-03-06T02:44:02;-6.20;63.68
70214;DHT22;60138;55.808;37.078;2024-03-06T02:46:28;-6.22;63.57
70214;DHT22;60138;55.808;37.078;2024-03-06T02:48:54;-6.26;63.63
70214;DHT22;60138;55.808;37.078;2024-03-06T02:51:20;-6.30;63.68
70214;DHT22;60138;55.808;37.078;2024-03-06T02:53:46;-6.31;63.77
70214;DHT22;60138;55.808;37.078;2024-03-06T02:56:17;-6.34;63.80
70214;DHT22;60138;55.808;37.078;2024-03-06T02:58:42;-6.36;63.88
70214;DHT22;60138;55.808;37.078;2024-03-06T03:01:08;-6.38;63.89
70214;DHT22;60138;55.808;37.078;2024-03-06T03:03:34;-6.41;63.87
70214;DHT22;60138;55.808;37.078;2024-03-06T03:05:59;-6.46;63.96
70214;DHT22;60138;55.808;37.078;2024-03-06T03:08:25;-6.49;63.92
70214;DHT22;60138;55.808;37.078;2024-03-06T03:10:51;-6.53;64.06
70214;DHT22;60138;55.808;37.078;2024-03-06T03:13:17;-6.62;64.11
70214;DHT22;60138;55.808;37.078;2024-03-06T03:15:42;-6.71;64.32
70214;DHT22;60138;55.808;37.078;2024-03-06T03:18:08;-6.75;64.35
70214;DHT22;60138;55.808;37.078;2024-03-06T03:20:34;-6.79;64.33
70214;DHT22;60138;55.808;37.078;2024-03-06T03:23:00;-6.81;64.38
70214;DHT22;60138;55.808;37.078;2024-03-06T03:25:26;-6.87;64.42
70214;DHT22;60138;55.808;37.078;2024-03-06T03:27:51;-6.90;64.46
70214;DHT22;60138;55.808;37.078;2024-03-06T03:30:17;-6.95;64.40
70214;DHT22;60138;55.808;37.078;2024-03-06T03:32:43;-7.00;64.62
70214;DHT22;60138;55.808;37.078;2024-03-06T03:35:09;-7.03;64.47
70214;DHT22;60138;55.808;37.078;2024-03-06T03:37:34;-7.05;64.63
70214;DHT22;60138;55.808;37.078;2024-03-06T03:40:00;-7.09;64.63
70214;DHT22;60138;55.808;37.078;2024-03-06T03:42:26;-7.11;64.66
70214;DHT22;60138;55.808;37.078;2024-03-06T03:44:51;-7.11;64.68
70214;DHT22;60138;55.808;37.078;2024-03-06T03:47:18;-7.16;64.60
70214;DHT22;60138;55.808;37.078;2024-03-06T03:49:43;-7.18;64.68
70214;DHT22;60138;55.808;37.078;2024-03-06T03:52:09;-7.18;64.66
70214;DHT22;60138;55.808;37.078;2024-03-06T03:54:35;-7.19;64.72
70214;DHT22;60138;55.808;37.078;2024-03-06T03:57:01;-7.19;64.72
70214;DHT22;60138;55.808;37.078;2024-03-06T03:59:27;-7.20;64.78
70214;DHT22;60138;55.808;37.078;2024-03-06T04:01:55;-7.23;64.76
70214;DHT22;60138;55.808;37.078;2024-03-06T04:04:21;-7.24;64.71
70214;DHT22;60138;55.808;37.078;2024-03-06T04:06:46;-7.26;64.74
70214;DHT22;60138;55.808;37.078;2024-03-06T04:09:12;-7.26;64.85
70214;DHT22;60138;55.808;37.078;2024-03-06T04:11:38;-7.26;64.81
70214;DHT22;60138;55.808;37.078;2024-03-06T04:14:04;-7.30;64.80
70214;DHT22;60138;55.808;37.078;2024-03-06T04:16:30;-7.33;64.87
70214;DHT22;60138;55.808;37.078;2024-03-06T04:18:56;-7.39;64.82
70214;DHT22;60138;55.808;37.078;2024-03-06T04:21:22;-7.42;64.91
70214;DHT22;60138;55.808;37.078;2024-03-06T04:23:48;-7.45;64.92
70214;DHT22;60138;55.808;37.078;2024-03-06T04:26:13;-7.46;64.92
70214;DHT22;60138;55.808;37.078;2024-03-06T04:28:39;-7.45;65.11
70214;DHT22;60138;55.808;37.078;2024-03-06T04:31:05;-7.45;65.07
70214;DHT22;60138;55.808;37.078;2024-03-06T04:33:31;-7.44;65.08
70214;DHT22;60138;55.808;37.078;2024-03-06T04:35:57;-7.40;65.08
70214;DHT22;60138;55.808;37.078;2024-03-06T04:38:22;-7.40;64.94
70214;DHT22;60138;55.808;37.078;2024-03-06T04:40:48;-7.39;64.98
70214;DHT22;60138;55.808;37.078;2024-03-06T04:43:14;-7.38;65.10
70214;DHT22;60138;55.808;37.078;2024-03-06T04:45:39;-7.36;65.03
70214;DHT22;60138;55.808;37.078;2024-03-06T04:48:06;-7.37;65.02
70214;DHT22;60138;55.808;37.078;2024-03-06T04:50:31;-7.41;65.26
70214;DHT22;60138;55.808;37.078;2024-03-06T04:52:57;-7.49;65.34
70214;DHT22;60138;55.808;37.078;2024-03-06T04:55:23;-7.51;65.17
70214;DHT22;60138;55.808;37.078;2024-03-06T04:57:49;-7.54;65.40
70214;DHT22;60138;55.808;37.078;2024-03-06T05:00:15;-7.53;65.24
70214;DHT22;60138;55.808;37.078;2024-03-06T05:02:41;-7.55;65.48
70214;DHT22;60138;55.808;37.078;2024-03-06T05:05:07;-7.56;65.30
70214;DHT22;60138;55.808;37.078;2024-03-06T05:07:33;-7.53;65.01
70214;DHT22;60138;55.808;37.078;2024-03-06T05:09:59;-7.51;64.98
70214;DHT22;60138;55.808;37.078;2024-03-06T05:12:25;-7.51;65.26
70214;DHT22;60138;55.808;37.078;2024-03-06T05:14:52;-7.51;65.03
70214;DHT22;60138;55.808;37.078;2024-03-06T05:17:18;-7.52;65.11
70214;DHT22;60138;55.808;37.078;2024-03-06T05:19:44;-7.51;64.88
70214;DHT22;60138;55.808;37.078;2024-03-06T05:22:10;-7.47;64.72
70214;DHT22;60138;55.808;37.078;2024-03-06T05:24:37;-7.47;64.78
70214;DHT22;60138;55.808;37.078;2024-03-06T05:27:03;-7.45;64.56
70214;DHT22;60138;55.808;37.078;2024-03-06T05:29:29;-7.44;64.46
70214;DHT22;60138;55.808;37.078;2024-03-06T05:31:55;-7.41;64.41
70214;DHT22;60138;55.808;37.078;2024-03-06T05:34:20;-7.38;64.37
70214;DHT22;60138;55.808;37.078;2024-03-06T05:36:46;-7.35;64.32
70214;DHT22;60138;55.808;37.078;2024-03-06T05:39:12;-7.34;64.39
70214;DHT22;60138;55.808;37.078;2024-03-06T05:41:41;-7.33;64.36
70214;DHT22;60138;55.808;37.078;2024-03-06T05:44:07;-7.30;63.98
70214;DHT22;60138;55.808;37.078;2024-03-06T05:46:33;-7.27;64.01
70214;DHT22;60138;55.808;37.078;2024-03-06T05:48:59;-7.24;64.02
70214;DHT22;60138;55.808;37.078;2024-03-06T05:51:25;-7.21;63.87
70214;DHT22;60138;55.808;37.078;2024-03-06T05:53:50;-7.18;63.85
70214;DHT22;60138;55.808;37.078;2024-03-06T05:56:19;-7.13;63.73
70214;DHT22;60138;55.808;37.078;2024-03-06T05:58:45;-7.06;63.75
70214;DHT22;60138;55.808;37.078;2024-03-06T06:01:11;-7.00;63.56
70214;DHT22;60138;55.808;37.078;2024-03-06T06:03:40;-6.93;63.46
70214;DHT22;60138;55.808;37.078;2024-03-06T06:06:06;-6.81;63.39
70214;DHT22;60138;55.808;37.078;2024-03-06T06:08:32;-6.71;63.31
70214;DHT22;60138;55.808;37.078;2024-03-06T06:10:57;-6.59;62.76
70214;DHT22;60138;55.808;37.078;2024-03-06T06:13:23;-6.45;62.54
70214;DHT22;60138;55.808;37.078;2024-03-06T06:15:49;-6.38;62.43
70214;DHT22;60138;55.808;37.078;2024-03-06T06:18:15;-6.34;62.51
70214;DHT22;60138;55.808;37.078;2024-03-06T06:20:43;-6.30;62.53
70214;DHT22;60138;55.808;37.078;2024-03-06T06:23:09;-6.24;62.59
70214;DHT22;60138;55.808;37.078;2024-03-06T06:25:35;-6.14;62.63
70214;DHT22;60138;55.808;37.078;2024-03-06T06:28:01;-5.97;62.57
70214;DHT22;60138;55.808;37.078;2024-03-06T06:30:26;-5.81;62.29
70214;DHT22;60138;55.808;37.078;2024-03-06T06:32:52;-5.61;62.09
70214;DHT22;60138;55.808;37.078;2024-03-06T06:35:18;-5.43;60.34
70214;DHT22;60138;55.808;37.078;2024-03-06T06:37:44;-5.32;59.61
70214;DHT22;60138;55.808;37.078;2024-03-06T06:40:10;-5.22;59.07
70214;DHT22;60138;55.808;37.078;2024-03-06T06:42:36;-5.11;58.29
70214;DHT22;60138;55.808;37.078;2024-03-06T06:45:02;-5.00;57.73
70214;DHT22;60138;55.808;37.078;2024-03-06T06:47:28;-4.89;57.84
70214;DHT22;60138;55.808;37.078;2024-03-06T06:49:54;-4.76;58.65
70214;DHT22;60138;55.808;37.078;2024-03-06T06:52:20;-4.67;56.26
70214;DHT22;60138;55.808;37.078;2024-03-06T06:54:45;-4.54;58.71
70214;DHT22;60138;55.808;37.078;2024-03-06T06:57:11;-4.39;56.54
70214;DHT22;60138;55.808;37.078;2024-03-06T06:59:37;-4.30;57.78
70214;DHT22;60138;55.808;37.078;2024-03-06T07:02:02;-4.19;55.36
70214;DHT22;60138;55.808;37.078;2024-03-06T07:04:28;-4.14;55.08
70214;DHT22;60138;55.808;37.078;2024-03-06T07:06:54;-4.10;54.59
70214;DHT22;60138;55.808;37.078;2024-03-06T07:09:20;-4.00;56.90
70214;DHT22;60138;55.808;37.078;2024-03-06T07:11:46;-3.84;54.94
70214;DHT22;60138;55.808;37.078;2024-03-06T07:14:12;-3.68;56.77
70214;DHT22;60138;55.808;37.078;2024-03-06T07:16:42;-3.47;57.26
70214;DHT22;60138;55.808;37.078;2024-03-06T07:19:08;-3.30;57.11
70214;DHT22;60138;55.808;37.078;2024-03-06T07:21:33;-3.24;54.19
70214;DHT22;60138;55.808;37.078;2024-03-06T07:23:59;-3.11;55.18
70214;DHT22;60138;55.808;37.078;2024-03-06T07:26:25;-3.10;51.95
70214;DHT22;60138;55.808;37.078;2024-03-06T07:28:50;-3.11;51.01
70214;DHT22;60138;55.808;37.078;2024-03-06T07:31:16;-3.16;51.85
70214;DHT22;60138;55.808;37.078;2024-03-06T07:33:42;-3.16;48.79
70214;DHT22;60138;55.808;37.078;2024-03-06T07:36:08;-3.11;51.46
70214;DHT22;60138;55.808;37.078;2024-03-06T07:38:34;-2.97;52.95
70214;DHT22;60138;55.808;37.078;2024-03-06T07:41:00;-2.92;49.26
70214;DHT22;60138;55.808;37.078;2024-03-06T07:43:26;-2.86;52.49
70214;DHT22;60138;55.808;37.078;2024-03-06T07:45:51;-2.75;51.88
70214;DHT22;60138;55.808;37.078;2024-03-06T07:48:17;-2.74;50.01
70214;DHT22;60138;55.808;37.078;2024-03-06T07:50:43;-2.71;49.32
70214;DHT22;60138;55.808;37.078;2024-03-06T07:53:08;-2.72;48.49
70214;DHT22;60138;55.808;37.078;2024-03-06T07:55:34;-2.69;51.03
70214;DHT22;60138;55.808;37.078;2024-03-06T07:58:00;-2.66;53.20
70214;DHT22;60138;55.808;37.078;2024-03-06T08:00:25;-2.63;46.74
70214;DHT22;60138;55.808;37.078;2024-03-06T08:02:51;-2.63;48.11
70214;DHT22;60138;55.808;37.078;2024-03-06T08:05:17;-2.62;48.05
70214;DHT22;60138;55.808;37.078;2024-03-06T08:07:43;-2.59;50.40
70214;DHT22;60138;55.808;37.078;2024-03-06T08:10:09;-2.53;48.48
70214;DHT22;60138;55.808;37.078;2024-03-06T08:12:35;-2.43;48.00
70214;DHT22;60138;55.808;37.078;2024-03-06T08:15:01;-2.35;48.67
70214;DHT22;60138;55.808;37.078;2024-03-06T08:17:26;-2.27;46.59
70214;DHT22;60138;55.808;37.078;2024-03-06T08:19:52;-2.15;47.02
70214;DHT22;60138;55.808;37.078;2024-03-06T08:22:18;-2.01;46.04
70214;DHT22;60138;55.808;37.078;2024-03-06T08:24:43;-1.83;48.63
70214;DHT22;60138;55.808;37.078;2024-03-06T08:27:09;-1.65;44.98
70214;DHT22;60138;55.808;37.078;2024-03-06T08:29:35;-1.52;46.64
70214;DHT22;60138;55.808;37.078;2024-03-06T08:32:00;-1.26;48.48
70214;DHT22;60138;55.808;37.078;2024-03-06T08:34:26;-1.09;52.14
70214;DHT22;60138;55.808;37.078;2024-03-06T08:36:52;-1.03;40.90
70214;DHT22;60138;55.808;37.078;2024-03-06T08:39:17;-0.94;45.33
70214;DHT22;60138;55.808;37.078;2024-03-06T08:41:43;-0.61;48.27
70214;DHT22;60138;55.808;37.078;2024-03-06T08:44:09;-0.35;45.25
70214;DHT22;60138;55.808;37.078;2024-03-06T08:46:35;-0.17;48.14
70214;DHT22;60138;55.808;37.078;2024-03-06T08:49:00;-0.00;47.02
70214;DHT22;60138;55.808;37.078;2024-03-06T08:51:26;0.21;47.03
70214;DHT22;60138;55.808;37.078;2024-03-06T08:53:52;0.31;48.27
70214;DHT22;60138;55.808;37.078;2024-03-06T08:56:17;0.37;50.24
70214;DHT22;60138;55.808;37.078;2024-03-06T08:58:43;0.47;47.92
70214;DHT22;60138;55.808;37.078;2024-03-06T09:01:09;0.54;45.76
70214;DHT22;60138;55.808;37.078;2024-03-06T09:03:35;0.64;48.40
70214;DHT22;60138;55.808;37.078;2024-03-06T09:06:00;0.75;49.38
70214;DHT22;60138;55.808;37.078;2024-03-06T09:08:26;0.81;45.69
70214;DHT22;60138;55.808;37.078;2024-03-06T09:10:52;0.84;47.16
70214;DHT22;60138;55.808;37.078;2024-03-06T09:13:17;0.94;48.28
70214;DHT22;60138;55.808;37.078;2024-03-06T09:15:43;0.99;46.51
70214;DHT22;60138;55.808;37.078;2024-03-06T09:18:09;1.03;46.06
70214;DHT22;60138;55.808;37.078;2024-03-06T09:20:34;1.08;44.71
70214;DHT22;60138;55.808;37.078;2024-03-06T09:23:00;1.12;44.60
70214;DHT22;60138;55.808;37.078;2024-03-06T09:25:26;1.16;46.41
70214;DHT22;60138;55.808;37.078;2024-03-06T09:27:51;1.25;46.47
70214;DHT22;60138;55.808;37.078;2024-03-06T09:30:17;1.34;46.25
70214;DHT22;60138;55.808;37.078;2024-03-06T09:32:43;1.40;48.86
70214;DHT22;60138;55.808;37.078;2024-03-06T09:35:09;1.47;45.35
70214;DHT22;60138;55.808;37.078;2024-03-06T09:37:34;1.53;46.86
70214;DHT22;60138;55.808;37.078;2024-03-06T09:40:00;1.64;46.02
70214;DHT22;60138;55.808;37.078;2024-03-06T09:42:26;1.71;45.88
70214;DHT22;60138;55.808;37.078;2024-03-06T09:44:52;1.79;45.91
70214;DHT22;60138;55.808;37.078;2024-03-06T09:47:21;1.87;44.42
70214;DHT22;60138;55.808;37.078;2024-03-06T09:49:47;1.78;43.90
70214;DHT22;60138;55.808;37.078;2024-03-06T09:52:13;1.87;41.76
70214;DHT22;60138;55.808;37.078;2024-03-06T09:54:40;1.95;46.14
70214;DHT22;60138;55.808;37.078;2024-03-06T09:57:06;2.08;45.68
70214;DHT22;60138;55.808;37.078;2024-03-06T09:59:32;2.21;45.74
70214;DHT22;60138;55.808;37.078;2024-03-06T10:01:58;2.28;45.00
70214;DHT22;60138;55.808;37.078;2024-03-06T10:04:27;2.36;45.24
70214;DHT22;60138;55.808;37.078;2024-03-06T10:06:55;2.43;43.11
70214;DHT22;60138;55.808;37.078;2024-03-06T10:09:21;2.45;44.59
70214;DHT22;60138;55.808;37.078;2024-03-06T10:11:48;2.55;45.70
70214;DHT22;60138;55.808;37.078;2024-03-06T10:14:14;2.55;47.36
70214;DHT22;60138;55.808;37.078;2024-03-06T10:16:56;2.51;43.82
70214;DHT22;60138;55.808;37.078;2024-03-06T10:19:27;2.61;45.07
70214;DHT22;60138;55.808;37.078;2024-03-06T10:21:53;2.66;48.01
70214;DHT22;60138;55.808;37.078;2024-03-06T10:26:50;2.61;43.03
70214;DHT22;60138;55.808;37.078;2024-03-06T10:29:19;2.68;43.77
70214;DHT22;60138;55.808;37.078;2024-03-06T10:31:51;2.70;42.48
70214;DHT22;60138;55.808;37.078;2024-03-06T10:34:17;2.74;40.65
70214;DHT22;60138;55.808;37.078;2024-03-06T10:36:43;2.80;43.02
70214;DHT22;60138;55.808;37.078;2024-03-06T10:39:11;2.76;43.23
70214;DHT22;60138;55.808;37.078;2024-03-06T10:41:38;2.73;43.57
70214;DHT22;60138;55.808;37.078;2024-03-06T10:44:08;2.71;45.61
70214;DHT22;60138;55.808;37.078;2024-03-06T10:46:44;2.71;45.11
70214;DHT22;60138;55.808;37.078;2024-03-06T10:49:10;2.71;43.41
70214;DHT22;60138;55.808;37.078;2024-03-06T10:51:38;2.69;36.05
70214;DHT22;60138;55.808;37.078;2024-03-06T10:54:06;2.66;40.71
70214;DHT22;60138;55.808;37.078;2024-03-06T10:56:32;2.57;42.57
70214;DHT22;60138;55.808;37.078;2024-03-06T10:58:59;2.52;41.07
70214;DHT22;60138;55.808;37.078;2024-03-06T11:01:25;2.53;42.69
70214;DHT22;60138;55.808;37.078;2024-03-06T11:03:52;2.56;41.14
70214;DHT22;60138;55.808;37.078;2024-03-06T11:06:18;2.57;40.11
70214;DHT22;60138;55.808;37.078;2024-03-06T11:08:44;2.54;38.15
70214;DHT22;60138;55.808;37.078;2024-03-06T11:11:22;2.46;40.35
70214;DHT22;60138;55.808;37.078;2024-03-06T11:13:48;2.47;40.12
70214;DHT22;60138;55.808;37.078;2024-03-06T11:16:14;2.45;41.33
70214;DHT22;60138;55.808;37.078;2024-03-06T11:18:40;2.41;42.11
70214;DHT22;60138;55.808;37.078;2024-03-06T11:23:35;2.07;39.68
70214;DHT22;60138;55.808;37.078;2024-03-06T11:26:21;1.95;38.98
70214;DHT22;60138;55.808;37.078;2024-03-06T11:28:47;1.97;40.95
70214;DHT22;60138;55.808;37.078;2024-03-06T11:31:13;2.01;35.02
70214;DHT22;60138;55.808;37.078;2024-03-06T11:33:43;2.06;34.79
70214;DHT22;60138;55.808;37.078;2024-03-06T11:39:06;2.16;35.43
70214;DHT22;60138;55.808;37.078;2024-03-06T11:41:47;2.15;40.68
70214;DHT22;60138;55.808;37.078;2024-03-06T11:44:18;2.09;33.54
70214;DHT22;60138;55.808;37.078;2024-03-06T11:46:45;1.94;37.58
70214;DHT22;60138;55.808;37.078;2024-03-06T11:49:34;1.92;38.88
70214;DHT22;60138;55.808;37.078;2024-03-06T11:52:03;1.96;32.13
70214;DHT22;60138;55.808;37.078;2024-03-06T11:54:30;2.11;32.58
70214;DHT22;60138;55.808;37.078;2024-03-06T11:56:58;2.40;39.19
70214;DHT22;60138;55.808;37.078;2024-03-06T12:01:56;3.18;37.42
70214;DHT22;60138;55.808;37.078;2024-03-06T12:04:23;3.59;42.88
70214;DHT22;60138;55.808;37.078;2024-03-06T12:06:49;3.92;30.21
70214;DHT22;60138;55.808;37.078;2024-03-06T12:09:16;3.87;33.67
70214;DHT22;60138;55.808;37.078;2024-03-06T12:11:42;3.46;31.90
70214;DHT22;60138;55.808;37.078;2024-03-06T12:14:07;3.02;30.35
70214;DHT22;60138;55.808;37.078;2024-03-06T12:16:33;2.70;27.37
70214;DHT22;60138;55.808;37.078;2024-03-06T12:18:59;2.37;28.19
70214;DHT22;60138;55.808;37.078;2024-03-06T12:21:31;2.42;27.88
70214;DHT22;60138;55.808;37.078;2024-03-06T12:24:05;2.60;25.88
70214;DHT22;60138;55.808;37.078;2024-03-06T12:26:31;2.97;35.50
70214;DHT22;60138;55.808;37.078;2024-03-06T12:29:06;3.41;25.11
70214;DHT22;60138;55.808;37.078;2024-03-06T12:31:34;3.40;32.54
70214;DHT22;60138;55.808;37.078;2024-03-06T12:34:00;3.98;32.86
70214;DHT22;60138;55.808;37.078;2024-03-06T12:36:26;4.47;34.75
70214;DHT22;60138;55.808;37.078;2024-03-06T12:38:55;4.75;28.01
70214;DHT22;60138;55.808;37.078;2024-03-06T12:41:22;4.95;26.75
70214;DHT22;60138;55.808;37.078;2024-03-06T12:43:47;4.93;31.25
70214;DHT22;60138;55.808;37.078;2024-03-06T12:46:13;4.93;32.35
70214;DHT22;60138;55.808;37.078;2024-03-06T12:48:39;5.25;37.08
70214;DHT22;60138;55.808;37.078;2024-03-06T12:51:05;5.60;27.65
70214;DHT22;60138;55.808;37.078;2024-03-06T12:53:30;6.00;32.90
70214;DHT22;60138;55.808;37.078;2024-03-06T12:55:56;6.50;34.43
70214;DHT22;60138;55.808;37.078;2024-03-06T12:58:22;6.90;31.20
70214;DHT22;60138;55.808;37.078;2024-03-06T13:00:51;7.35;34.77
70214;DHT22;60138;55.808;37.078;2024-03-06T13:03:17;7.79;31.73
70214;DHT22;60138;55.808;37.078;2024-03-06T13:05:42;7.98;37.11
70214;DHT22;60138;55.808;37.078;2024-03-06T13:08:08;7.96;34.26
70214;DHT22;60138;55.808;37.078;2024-03-06T13:10:34;7.65;24.04
70214;DHT22;60138;55.808;37.078;2024-03-06T13:13:01;7.45;34.46
70214;DHT22;60138;55.808;37.078;2024-03-06T13:15:27;6.71;24.53
70214;DHT22;60138;55.808;37.078;2024-03-06T13:17:52;5.87;30.01
70214;DHT22;60138;55.808;37.078;2024-03-06T13:20:18;5.36;35.50
70214;DHT22;60138;55.808;37.078;2024-03-06T13:22:44;4.75;36.95
70214;DHT22;60138;55.808;37.078;2024-03-06T13:25:10;4.27;34.59
70214;DHT22;60138;55.808;37.078;2024-03-06T13:27:35;3.98;35.39
70214;DHT22;60138;55.808;37.078;2024-03-06T13:30:01;3.48;29.01
70214;DHT22;60138;55.808;37.078;2024-03-06T13:32:27;3.05;31.06
70214;DHT22;60138;55.808;37.078;2024-03-06T13:34:53;2.79;32.96
70214;DHT22;60138;55.808;37.078;2024-03-06T13:37:18;2.54;36.75
70214;DHT22;60138;55.808;37.078;2024-03-06T13:39:44;2.50;36.87
70214;DHT22;60138;55.808;37.078;2024-03-06T13:42:10;2.32;29.19
70214;DHT22;60138;55.808;37.078;2024-03-06T13:44:36;2.13;34.01
70214;DHT22;60138;55.808;37.078;2024-03-06T13:47:03;1.88;31.51
70214;DHT22;60138;55.808;37.078;2024-03-06T13:49:39;1.67;30.26
70214;DHT22;60138;55.808;37.078;2024-03-06T13:52:07;1.52;38.88
70214;DHT22;60138;55.808;37.078;2024-03-06T13:54:34;1.34;33.02
70214;DHT22;60138;55.808;37.078;2024-03-06T13:57:00;1.18;29.35
70214;DHT22;60138;55.808;37.078;2024-03-06T13:59:26;1.05;36.25
70214;DHT22;60138;55.808;37.078;2024-03-06T14:01:52;0.93;29.93
70214;DHT22;60138;55.808;37.078;2024-03-06T14:04:17;0.83;34.63
70214;DHT22;60138;55.808;37.078;2024-03-06T14:06:43;0.78;35.19
70214;DHT22;60138;55.808;37.078;2024-03-06T14:09:09;0.72;34.92
70214;DHT22;60138;55.808;37.078;2024-03-06T14:11:34;0.71;37.22
70214;DHT22;60138;55.808;37.078;2024-03-06T14:14:00;0.66;36.03
70214;DHT22;60138;55.808;37.078;2024-03-06T14:16:26;0.61;37.79
70214;DHT22;60138;55.808;37.078;2024-03-06T14:18:52;0.54;34.82
70214;DHT22;60138;55.808;37.078;2024-03-06T14:21:17;0.46;36.39
70214;DHT22;60138;55.808;37.078;2024-03-06T14:23:43;0.36;35.75
70214;DHT22;60138;55.808;37.078;2024-03-06T14:26:09;0.24;37.05
70214;DHT22;60138;55.808;37.078;2024-03-06T14:28:34;0.15;38.98
70214;DHT22;60138;55.808;37.078;2024-03-06T14:31:00;0.05;38.14
70214;DHT22;60138;55.808;37.078;2024-03-06T14:33:26;-0.05;35.79
70214;DHT22;60138;55.808;37.078;2024-03-06T14:35:52;-0.10;37.74
70214;DHT22;60138;55.808;37.078;2024-03-06T14:38:17;-0.19;38.44
70214;DHT22;60138;55.808;37.078;2024-03-06T14:40:43;-0.28;36.55
70214;DHT22;60138;55.808;37.078;2024-03-06T14:43:08;-0.37;35.21
70214;DHT22;60138;55.808;37.078;2024-03-06T14:45:34;-0.45;33.47
70214;DHT22;60138;55.808;37.078;2024-03-06T14:48:00;-0.49;36.34
70214;DHT22;60138;55.808;37.078;2024-03-06T14:50:26;-0.57;35.77
70214;DHT22;60138;55.808;37.078;2024-03-06T14:52:52;-0.62;36.92
70214;DHT22;60138;55.808;37.078;2024-03-06T14:55:18;-0.67;36.50
70214;DHT22;60138;55.808;37.078;2024-03-06T14:57:44;-0.74;32.24
70214;DHT22;60138;55.808;37.078;2024-03-06T15:00:10;-0.79;31.35
70214;DHT22;60138;55.808;37.078;2024-03-06T15:02:36;-0.84;32.82
70214;DHT22;60138;55.808;37.078;2024-03-06T15:05:01;-0.90;33.75
70214;DHT22;60138;55.808;37.078;2024-03-06T15:07:27;-0.96;35.44
70214;DHT22;60138;55.808;37.078;2024-03-06T15:09:53;-1.05;33.05
70214;DHT22;60138;55.808;37.078;2024-03-06T15:12:19;-1.11;37.34
70214;DHT22;60138;55.808;37.078;2024-03-06T15:14:44;-1.20;37.28
70214;DHT22;60138;55.808;37.078;2024-03-06T15:17:10;-1.30;35.84
70214;DHT22;60138;55.808;37.078;2024-03-06T15:19:36;-1.35;37.69
70214;DHT22;60138;55.808;37.078;2024-03-06T15:22:02;-1.43;38.80
70214;DHT22;60138;55.808;37.078;2024-03-06T15:24:27;-1.50;37.47
70214;DHT22;60138;55.808;37.078;2024-03-06T15:26:53;-1.55;37.35